Time;durP1;ratioP1;P1;durP2;ratioP2;P2;SDS_P1;SDS_P2;PMS_P1;PMS_P2;Temp;Humidity;BMP_temperature;BMP_pressure;BME280_temperature;BME280_humidity;BME280_pressure;Samples;Min_cycle;Max_cycle;Signal;HPM_P1;HPM_P2
2022/02/20 00:08:21;;;;;;;0.20;0.00;;;9.70;99.90;;;;;;25204061;23;20152;-67
2022/02/20 00:18:26;;;;;;;1.80;1.73;;;9.30;99.90;;;;;;25203530;23;20203;-66
2022/02/20 00:28:30;;;;;;;0.20;0.00;;;8.60;99.90;;;;;;25203109;23;20166;-67
2022/02/20 00:38:36;;;;;;;0.20;0.03;;;7.90;99.90;;;;;;25205263;23;20204;-68
2022/02/20 00:48:39;;;;;;;0.20;0.00;;;7.80;99.90;;;;;;25205785;23;20199;-65
2022/02/20 00:58:45;;;;;;;0.20;0.10;;;7.20;99.90;;;;;;25204767;23;20204;-66
2022/02/20 01:08:49;;;;;;;0.20;0.00;;;8.30;99.90;;;;;;25206233;23;20164;-65
2022/02/20 01:18:54;;;;;;;0.20;0.10;;;9.10;99.90;;;;;;25204849;23;20188;-65
2022/02/20 01:28:58;;;;;;;0.20;0.10;;;9.50;99.90;;;;;;25204266;23;20172;-77
2022/02/20 01:39:03;;;;;;;0.20;0.10;;;9.80;99.90;;;;;;25202909;23;20204;-79
2022/02/20 01:49:07;;;;;;;0.20;0.00;;;9.90;99.90;;;;;;25206664;23;20189;-79
2022/02/20 01:59:12;;;;;;;0.20;0.10;;;9.90;99.90;;;;;;25206840;23;20173;-80
2022/02/20 02:09:19;;;;;;;0.20;0.10;;;10.00;99.90;;;;;;25207236;23;20575;-78
2022/02/20 02:19:24;;;;;;;0.20;0.10;;;10.10;99.90;;;;;;25205598;23;20188;-78
2022/02/20 02:29:30;;;;;;;0.20;0.10;;;10.10;99.90;;;;;;25205795;23;20169;-80
2022/02/20 02:39:34;;;;;;;0.20;0.00;;;10.10;99.90;;;;;;25207172;23;20204;-80
2022/02/20 02:49:39;;;;;;;0.20;0.10;;;10.10;99.90;;;;;;25214944;23;20168;-79
2022/02/20 02:59:43;;;;;;;0.20;0.00;;;10.10;99.90;;;;;;25214185;23;20192;-81
2022/02/20 03:09:48;;;;;;;0.20;0.10;;;10.10;99.90;;;;;;25215299;23;20169;-81
2022/02/20 03:19:52;;;;;;;0.20;0.10;;;10.10;99.90;;;;;;25215328;23;20200;-84
2022/02/20 03:29:57;;;;;;;0.20;0.10;;;10.00;99.90;;;;;;25214262;23;20165;-80
2022/02/20 03:40:02;;;;;;;0.20;0.10;;;10.00;99.90;;;;;;25211134;23;20216;-67
2022/02/20 03:50:08;;;;;;;0.20;0.10;;;10.00;99.90;;;;;;25211897;23;20180;-67
2022/02/20 04:00:14;;;;;;;0.20;0.00;;;10.00;99.90;;;;;;25187351;23;20185;-66
2022/02/20 04:10:19;;;;;;;0.20;0.10;;;9.90;99.90;;;;;;25210941;23;20188;-66
2022/02/20 04:20:23;;;;;;;0.20;0.03;;;9.70;99.90;;;;;;25210157;23;20189;-67
2022/02/20 04:30:28;;;;;;;0.20;0.10;;;9.60;99.90;;;;;;25209922;23;20252;-83
2022/02/20 04:40:33;;;;;;;0.20;0.10;;;9.50;99.90;;;;;;25204506;23;20212;-83
2022/02/20 04:50:38;;;;;;;0.20;0.10;;;9.30;99.90;;;;;;25207140;23;20184;-82
2022/02/20 05:00:42;;;;;;;0.20;0.10;;;8.90;99.90;;;;;;25207440;23;20208;-82
2022/02/20 05:10:47;;;;;;;0.20;0.10;;;8.60;99.90;;;;;;25207560;23;20169;-81
2022/02/20 05:20:54;;;;;;;0.20;0.07;;;8.30;99.90;;;;;;25182561;23;20192;-88
2022/02/20 05:30:59;;;;;;;0.20;0.03;;;8.00;99.90;;;;;;25208482;23;20180;-85
2022/02/20 05:41:03;;;;;;;0.20;0.10;;;7.90;99.90;;;;;;25203153;23;20228;-66
2022/02/20 05:51:09;;;;;;;0.20;0.10;;;7.60;99.90;;;;;;25201040;23;20184;-66
2022/02/20 06:01:13;;;;;;;0.20;0.00;;;7.20;99.90;;;;;;25201915;23;20193;-82
2022/02/20 06:11:18;;;;;;;0.20;0.10;;;7.10;99.90;;;;;;25179483;23;20184;-81
2022/02/20 06:21:22;;;;;;;0.20;0.10;;;7.30;99.90;;;;;;25201595;23;20185;-83
2022/02/20 06:31:27;;;;;;;0.20;0.00;;;7.70;99.90;;;;;;25197431;23;20173;-81
2022/02/20 06:41:31;;;;;;;0.20;0.10;;;7.50;99.90;;;;;;25123108;23;1313076;-67
2022/02/20 06:51:37;;;;;;;0.20;0.10;;;7.50;99.90;;;;;;25204104;23;20198;-66
2022/02/20 07:01:40;;;;;;;0.20;0.07;;;7.60;99.90;;;;;;25205176;23;20703;-66
2022/02/20 07:11:46;;;;;;;0.20;0.10;;;7.60;99.90;;;;;;25203786;23;20184;-67
2022/02/20 07:21:49;;;;;;;0.20;0.07;;;7.80;99.90;;;;;;25202345;23;20181;-68
2022/02/20 07:31:55;;;;;;;0.20;0.10;;;8.00;99.90;;;;;;25184286;23;20165;-69
2022/02/20 07:41:59;;;;;;;0.20;0.10;;;8.20;99.90;;;;;;25209575;23;20228;-67
2022/02/20 07:52:05;;;;;;;0.20;0.10;;;8.40;99.90;;;;;;25210308;23;20173;-65
2022/02/20 08:02:09;;;;;;;0.20;0.10;;;8.60;99.90;;;;;;25184963;23;20192;-66
2022/02/20 08:12:14;;;;;;;0.20;0.10;;;8.90;99.90;;;;;;25209201;23;20180;-65
2022/02/20 08:22:18;;;;;;;0.60;0.60;;;9.20;99.90;;;;;;25208518;23;20266;-67
2022/02/20 08:32:23;;;;;;;0.20;0.10;;;9.60;99.90;;;;;;25207335;23;20169;-66
2022/02/20 08:42:27;;;;;;;0.20;0.00;;;10.00;99.90;;;;;;25206505;23;20724;-67
2022/02/20 08:52:33;;;;;;;0.20;0.10;;;10.30;99.90;;;;;;25205394;23;20184;-68
2022/02/20 09:02:36;;;;;;;0.20;0.00;;;10.50;99.90;;;;;;25204134;23;20188;-70
2022/02/20 09:12:42;;;;;;;0.20;0.10;;;10.90;99.90;;;;;;25202029;23;20180;-68
2022/02/20 09:22:46;;;;;;;0.20;0.10;;;11.20;99.90;;;;;;25202212;23;20254;-68
2022/02/20 09:32:51;;;;;;;0.20;0.10;;;11.40;99.90;;;;;;25199689;23;20179;-70
2022/02/20 09:42:56;;;;;;;0.20;0.10;;;11.60;99.90;;;;;;25196749;23;20215;-67
2022/02/20 09:53:01;;;;;;;0.20;0.10;;;11.80;99.90;;;;;;25192517;23;20180;-67
2022/02/20 10:03:05;;;;;;;0.20;0.10;;;12.40;99.90;;;;;;25193860;23;20248;-68
2022/02/20 10:13:10;;;;;;;0.30;0.30;;;12.70;99.90;;;;;;25189990;23;20369;-67
2022/02/20 10:23:15;;;;;;;0.20;0.00;;;13.30;99.90;;;;;;25194861;23;20193;-67
2022/02/20 10:33:22;;;;;;;0.20;0.10;;;13.60;99.90;;;;;;25195201;23;20177;-69
2022/02/20 10:43:27;;;;;;;0.20;0.10;;;13.90;99.90;;;;;;25196848;23;20197;-66
2022/02/20 10:53:33;;;;;;;0.20;0.10;;;14.50;99.90;;;;;;25195406;23;20180;-68
2022/02/20 11:03:41;;;;;;;0.20;0.00;;;14.90;99.90;;;;;;25196367;23;20221;-68
2022/02/20 11:13:47;;;;;;;0.20;0.10;;;15.30;99.90;;;;;;25176176;23;20184;-68
2022/02/20 11:23:52;;;;;;;0.20;0.10;;;16.20;99.90;;;;;;25198014;23;20200;-69
2022/02/20 11:33:58;;;;;;;0.20;0.00;;;16.70;99.90;;;;;;25195162;23;20275;-78
2022/02/20 11:44:16;;;;;;;0.20;0.10;;;16.80;99.90;;;;;;25204578;23;20207;-74
2022/02/20 11:54:23;;;;;;;0.20;0.00;;;17.10;99.90;;;;;;25200912;23;20217;-78
2022/02/20 12:04:26;;;;;;;0.20;0.10;;;18.10;99.90;;;;;;25202134;23;20197;-79
2022/02/20 12:14:32;;;;;;;0.20;0.00;;;18.70;99.90;;;;;;25201581;23;20169;-84
2022/02/20 12:24:49;;;;;;;0.20;0.00;;;19.60;99.90;;;;;;25200810;23;20208;-79
2022/02/20 12:35:00;;;;;;;0.20;0.10;;;20.20;99.90;;;;;;25260413;23;20211;-72
2022/02/20 12:45:08;;;;;;;0.20;0.00;;;19.50;99.90;;;;;;25318052;23;20208;-75
2022/02/20 12:55:17;;;;;;;0.20;0.00;;;19.50;99.90;;;;;;25322258;23;20161;-76
2022/02/20 13:05:23;;;;;;;0.20;0.10;;;19.80;99.90;;;;;;25319897;23;20192;-77
2022/02/20 13:15:31;;;;;;;0.20;0.20;;;19.80;99.90;;;;;;25320261;23;20231;-77
2022/02/20 13:25:36;;;;;;;0.20;0.00;;;19.30;99.90;;;;;;25318308;23;20246;-74
2022/02/20 13:35:43;;;;;;;0.20;0.10;;;20.30;99.90;;;;;;25253790;23;20204;-76
2022/02/20 13:45:55;;;;;;;0.20;0.10;;;20.80;99.90;;;;;;25174737;23;20203;-79
2022/02/20 13:56:00;;;;;;;1.03;1.03;;;20.10;99.90;;;;;;25199746;23;20161;-77
2022/02/20 14:06:05;;;;;;;0.20;0.10;;;20.10;99.90;;;;;;25175237;23;20197;-75
2022/02/20 14:16:13;;;;;;;0.20;0.10;;;21.30;99.90;;;;;;25197042;23;20169;-73
2022/02/20 14:26:23;;;;;;;0.20;0.10;;;21.10;99.90;;;;;;25169638;23;20196;-76
2022/02/20 14:36:30;;;;;;;0.20;0.10;;;21.50;99.90;;;;;;25244793;23;20211;-75
2022/02/20 14:46:35;;;;;;;0.20;0.00;;;21.40;99.90;;;;;;25313309;23;20191;-73
2022/02/20 14:56:40;;;;;;;0.20;0.00;;;21.90;99.90;;;;;;25310914;23;20172;-77
2022/02/20 15:06:44;;;;;;;0.20;0.10;;;21.00;99.90;;;;;;25312077;23;20218;-72
2022/02/20 15:16:49;;;;;;;0.20;0.00;;;21.60;99.90;;;;;;25288763;23;20550;-73
2022/02/20 15:26:52;;;;;;;0.20;0.00;;;22.20;99.90;;;;;;25313117;23;20188;-74
2022/02/20 15:36:57;;;;;;;0.20;0.00;;;22.10;99.90;;;;;;25314008;23;20200;-75
2022/02/20 15:47:02;;;;;;;0.20;0.10;;;20.40;99.90;;;;;;25291021;23;20192;-75
2022/02/20 15:57:07;;;;;;;0.20;0.10;;;20.00;99.90;;;;;;25320490;23;20172;-75
2022/02/20 16:07:10;;;;;;;0.20;0.10;;;20.30;99.90;;;;;;25295401;23;20215;-75
2022/02/20 16:17:16;;;;;;;0.20;0.00;;;19.00;99.90;;;;;;25320813;23;20228;-75
2022/02/20 16:27:19;;;;;;;0.20;0.00;;;18.60;99.90;;;;;;25320300;23;20199;-67
2022/02/20 16:37:26;;;;;;;0.20;0.07;;;17.80;99.90;;;;;;25294974;23;20207;-67
2022/02/20 16:47:30;;;;;;;0.20;0.07;;;16.70;99.90;;;;;;25294519;23;20202;-66
2022/02/20 16:57:35;;;;;;;0.20;0.10;;;16.10;99.90;;;;;;25320005;23;20168;-67
2022/02/20 17:07:39;;;;;;;0.20;0.00;;;15.20;99.90;;;;;;25293342;23;20204;-67
2022/02/20 17:17:45;;;;;;;0.20;0.10;;;15.00;99.90;;;;;;25320345;23;20164;-65
2022/02/20 17:27:51;;;;;;;0.20;0.10;;;14.80;99.90;;;;;;25319740;23;20195;-65
2022/02/20 17:37:56;;;;;;;0.20;0.10;;;14.10;99.90;;;;;;25319146;23;20203;-66
2022/02/20 17:48:00;;;;;;;0.20;0.10;;;13.40;99.90;;;;;;25292951;23;20188;-67
2022/02/20 17:58:07;;;;;;;0.20;0.10;;;12.90;99.90;;;;;;25293762;23;20168;-67
2022/02/20 18:08:13;;;;;;;0.20;0.10;;;12.40;99.90;;;;;;25315052;23;20180;-67
2022/02/20 18:18:18;;;;;;;0.20;0.10;;;12.20;99.90;;;;;;25289623;23;20172;-66
2022/02/20 18:28:23;;;;;;;0.20;0.10;;;11.80;99.90;;;;;;25316988;23;20183;-67
2022/02/20 18:38:28;;;;;;;0.20;0.10;;;11.50;99.90;;;;;;25314297;23;20196;-76
2022/02/20 18:48:32;;;;;;;0.20;0.10;;;11.40;99.90;;;;;;25285018;23;20191;-72
2022/02/20 18:58:39;;;;;;;0.20;0.10;;;11.20;99.90;;;;;;25316641;23;20175;-72
2022/02/20 19:08:43;;;;;;;0.20;0.10;;;11.10;99.90;;;;;;25309980;23;20211;-72
2022/02/20 19:18:49;;;;;;;0.20;0.10;;;11.10;99.90;;;;;;25290536;23;20187;-73
2022/02/20 19:28:52;;;;;;;0.20;0.03;;;10.50;99.90;;;;;;25323903;23;20188;-72
2022/02/20 19:38:58;;;;;;;0.20;0.10;;;10.40;99.90;;;;;;25323250;23;20196;-73
2022/02/20 19:49:02;;;;;;;0.20;0.10;;;11.10;99.90;;;;;;25297580;23;20184;-71
2022/02/20 19:59:07;;;;;;;0.20;0.10;;;11.20;99.90;;;;;;25296845;23;20176;-73
2022/02/20 20:09:11;;;;;;;0.20;0.10;;;11.10;99.90;;;;;;25318318;23;20164;-72
2022/02/20 20:19:17;;;;;;;0.20;0.10;;;10.40;99.90;;;;;;25322411;23;20179;-73
2022/02/20 20:29:21;;;;;;;0.20;0.10;;;10.20;99.90;;;;;;25297835;23;20168;-73
2022/02/20 20:39:26;;;;;;;0.20;0.10;;;10.10;99.90;;;;;;25187973;23;20197;-76
2022/02/20 20:49:30;;;;;;;0.20;0.00;;;9.60;99.90;;;;;;25177828;23;20169;-76
2022/02/20 20:59:35;;;;;;;0.20;0.10;;;9.80;99.90;;;;;;25204103;23;20188;-74
2022/02/20 21:09:39;;;;;;;0.20;0.10;;;9.50;99.90;;;;;;25178169;23;20184;-75
2022/02/20 21:19:44;;;;;;;0.20;0.10;;;8.90;99.90;;;;;;25202640;23;20192;-75
2022/02/20 21:29:49;;;;;;;0.20;0.10;;;9.10;99.90;;;;;;25155512;23;20196;-78
2022/02/20 21:39:54;;;;;;;0.20;0.10;;;9.00;99.90;;;;;;25320323;23;20208;-74
2022/02/20 21:49:58;;;;;;;0.20;0.10;;;8.80;99.90;;;;;;25271512;23;20176;-74
2022/02/20 22:00:04;;;;;;;0.20;0.10;;;8.80;99.90;;;;;;25322910;23;20212;-74
2022/02/20 22:10:08;;;;;;;0.20;0.10;;;8.80;99.90;;;;;;25298218;23;20277;-75
2022/02/20 22:20:14;;;;;;;0.20;0.10;;;8.40;99.90;;;;;;25323378;23;20211;-75
2022/02/20 22:30:17;;;;;;;0.20;0.10;;;8.60;99.90;;;;;;25319597;23;20192;-73
2022/02/20 22:40:22;;;;;;;0.20;0.10;;;8.80;99.90;;;;;;25295978;23;20195;-75
2022/02/20 22:50:26;;;;;;;0.43;0.43;;;9.20;99.90;;;;;;25324854;23;20175;-74
2022/02/20 23:00:43;;;;;;;0.20;0.10;;;9.00;99.90;;;;;;25302484;23;20261;-74
2022/02/20 23:10:49;;;;;;;0.20;0.10;;;9.10;99.90;;;;;;25331697;23;20206;-76
2022/02/20 23:20:55;;;;;;;0.20;0.10;;;8.90;99.90;;;;;;25330676;23;20190;-74
2022/02/20 23:30:59;;;;;;;0.20;0.10;;;9.20;99.90;;;;;;25322734;23;20212;-75
2022/02/20 23:41:04;;;;;;;0.20;0.10;;;9.10;99.90;;;;;;25323439;23;20203;-73
2022/02/20 23:51:08;;;;;;;0.20;0.03;;;9.30;99.90;;;;;;25286232;23;20168;-74
